<?xml version="1.0" encoding="UTF-8" standalone="no" ?>
<gpx xmlns="http://www.topografix.com/GPX/1/1" xmlns:xsi="http://www.w3.org/2001/XMLSchema-instance" xsi:schemaLocation="http://www.topografix.com/GPX/1/1 http://www.topografix.com/GPX/1/1/gpx.xsd" version="1.1" creator="VisuGPX - https://www.visugpx.com">
  <metadata>
    <name>CURRENT TRACK: 08 MARS 2020 VEIGY BOUCLE</name>
    <desc><![CDATA[Boucle réalisée au départ de Veigy en direction de Massongy  le dimanche 8 mars 2020.]]></desc>
  </metadata>
  <trk>
    <name><![CDATA[CURRENT TRACK: 25 FEV 2020 13:30]]></name>
    <extensions>
      <line xmlns="http://www.topografix.com/GPX/gpx_style/0/2">
        <color>0000FF</color>
        <width>4</width>
      </line>
    </extensions>
    <trkseg>
      <trkpt lat="46.2682" lon="6.25796">
        <ele>430.7</ele>
        <time>2020-03-08T10:52:10Z</time>
      </trkpt>
      <trkpt lat="46.26841" lon="6.25745">
        <ele>430.5</ele>
        <time>2020-03-08T10:52:27Z</time>
      </trkpt>
      <trkpt lat="46.26852" lon="6.25791">
        <ele>431.5</ele>
      </trkpt>
      <trkpt lat="46.26901" lon="6.25816">
        <ele>432.2</ele>
      </trkpt>
      <trkpt lat="46.26896" lon="6.25836">
        <ele>345.13</ele>
        <time>2020-03-08T10:52:42Z</time>
      </trkpt>
      <trkpt lat="46.26839" lon="6.25983">
        <ele>348.16</ele>
        <time>2020-03-08T10:54:28Z</time>
      </trkpt>
      <trkpt lat="46.26801" lon="6.26174">
        <ele>350.23</ele>
        <time>2020-03-08T10:55:11Z</time>
      </trkpt>
      <trkpt lat="46.26798" lon="6.26197">
        <ele>435.7</ele>
        <time>2020-03-08T10:55:25Z</time>
      </trkpt>
      <trkpt lat="46.26795" lon="6.26225">
        <ele>436</ele>
        <time>2020-03-08T10:55:43Z</time>
      </trkpt>
      <trkpt lat="46.26786" lon="6.26256">
        <ele>436.1</ele>
        <time>2020-03-08T10:56:15Z</time>
      </trkpt>
      <trkpt lat="46.26781" lon="6.26274">
        <ele>436.2</ele>
        <time>2020-03-08T10:56:30Z</time>
      </trkpt>
      <trkpt lat="46.26772" lon="6.26302">
        <ele>436.7</ele>
        <time>2020-03-08T10:57:09Z</time>
      </trkpt>
      <trkpt lat="46.26763" lon="6.26371">
        <ele>437</ele>
      </trkpt>
      <trkpt lat="46.26746" lon="6.26473">
        <ele>437.8</ele>
        <time>2020-03-08T10:57:25Z</time>
      </trkpt>
      <trkpt lat="46.26748" lon="6.2668">
        <ele>439.8</ele>
        <time>2020-03-08T11:02:34Z</time>
      </trkpt>
      <trkpt lat="46.26783" lon="6.26768">
        <ele>440.1</ele>
        <time>2020-03-08T11:02:51Z</time>
      </trkpt>
      <trkpt lat="46.26795" lon="6.2683">
        <ele>439.1</ele>
        <time>2020-03-08T11:03:10Z</time>
      </trkpt>
      <trkpt lat="46.26795" lon="6.2693">
        <ele>435.6</ele>
        <time>2020-03-08T11:04:40Z</time>
      </trkpt>
      <trkpt lat="46.26795" lon="6.26996">
        <ele>435</ele>
        <time>2020-03-08T11:04:53Z</time>
      </trkpt>
      <trkpt lat="46.26781" lon="6.27105">
        <ele>436.4</ele>
        <time>2020-03-08T11:05:12Z</time>
      </trkpt>
      <trkpt lat="46.26685" lon="6.27016">
        <ele>348.1</ele>
        <time>2020-03-08T11:05:27Z</time>
      </trkpt>
      <trkpt lat="46.26665" lon="6.27022">
        <ele>348.1</ele>
        <time>2020-03-08T11:05:46Z</time>
      </trkpt>
      <trkpt lat="46.26654" lon="6.27088">
        <ele>358.88</ele>
        <time>2020-03-08T11:06:06Z</time>
      </trkpt>
      <trkpt lat="46.26622" lon="6.27138">
        <ele>361.53</ele>
        <time>2020-03-08T11:06:24Z</time>
      </trkpt>
      <trkpt lat="46.2661" lon="6.27558">
        <ele>453</ele>
        <time>2020-03-08T11:07:54Z</time>
      </trkpt>
      <trkpt lat="46.26542" lon="6.27655">
        <ele>455</ele>
        <time>2020-03-08T11:08:24Z</time>
      </trkpt>
      <trkpt lat="46.2649" lon="6.27511">
        <ele>370.15</ele>
        <time>2020-03-08T11:10:23Z</time>
      </trkpt>
      <trkpt lat="46.26437" lon="6.274">
        <ele>369.43</ele>
        <time>2020-03-08T11:10:40Z</time>
      </trkpt>
      <trkpt lat="46.26403" lon="6.27357">
        <ele>368.56</ele>
        <time>2020-03-08T11:10:52Z</time>
      </trkpt>
      <trkpt lat="46.26342" lon="6.27176">
        <ele>367.62</ele>
        <time>2020-03-08T11:11:24Z</time>
      </trkpt>
      <trkpt lat="46.26311" lon="6.27131">
        <ele>366.92</ele>
        <time>2020-03-08T11:11:36Z</time>
      </trkpt>
      <trkpt lat="46.26287" lon="6.27073">
        <ele>366.5</ele>
        <time>2020-03-08T11:11:48Z</time>
      </trkpt>
      <trkpt lat="46.26275" lon="6.27007">
        <ele>366.15</ele>
        <time>2020-03-08T11:11:59Z</time>
      </trkpt>
      <trkpt lat="46.26243" lon="6.26957">
        <ele>365.47</ele>
        <time>2020-03-08T11:12:10Z</time>
      </trkpt>
      <trkpt lat="46.26222" lon="6.2694">
        <ele>449</ele>
      </trkpt>
      <trkpt lat="46.26241" lon="6.26883">
        <ele>448</ele>
      </trkpt>
      <trkpt lat="46.26221" lon="6.26848">
        <ele>364.26</ele>
        <time>2020-03-08T11:12:34Z</time>
      </trkpt>
      <trkpt lat="46.26147" lon="6.2676">
        <ele>363.98</ele>
        <time>2020-03-08T11:13:01Z</time>
      </trkpt>
      <trkpt lat="46.26067" lon="6.2669">
        <ele>365.15</ele>
        <time>2020-03-08T11:13:31Z</time>
      </trkpt>
      <trkpt lat="46.26031" lon="6.26645">
        <ele>366.31</ele>
        <time>2020-03-08T11:13:45Z</time>
      </trkpt>
      <trkpt lat="46.26" lon="6.2659">
        <ele>366.23</ele>
        <time>2020-03-08T11:13:56Z</time>
      </trkpt>
      <trkpt lat="46.2597" lon="6.26571">
        <ele>449.6</ele>
      </trkpt>
      <trkpt lat="46.25966" lon="6.26596">
        <ele>365.14</ele>
        <time>2020-03-08T11:16:43Z</time>
      </trkpt>
      <trkpt lat="46.25905" lon="6.26991">
        <ele>371.06</ele>
        <time>2020-03-08T11:18:00Z</time>
      </trkpt>
      <trkpt lat="46.25848" lon="6.2715">
        <ele>457</ele>
        <time>2020-03-08T11:18:22Z</time>
      </trkpt>
      <trkpt lat="46.25866" lon="6.27173">
        <ele>373</ele>
        <time>2020-03-08T11:18:37Z</time>
      </trkpt>
      <trkpt lat="46.25952" lon="6.27242">
        <ele>373.89</ele>
        <time>2020-03-08T11:19:02Z</time>
      </trkpt>
      <trkpt lat="46.25983" lon="6.27299">
        <ele>373.77</ele>
        <time>2020-03-08T11:19:14Z</time>
      </trkpt>
      <trkpt lat="46.26001" lon="6.27598">
        <ele>377.92</ele>
        <time>2020-03-08T11:20:26Z</time>
      </trkpt>
      <trkpt lat="46.25893" lon="6.27852">
        <ele>381.75</ele>
        <time>2020-03-08T11:21:27Z</time>
      </trkpt>
      <trkpt lat="46.25808" lon="6.27977">
        <ele>383.96</ele>
        <time>2020-03-08T11:22:20Z</time>
      </trkpt>
      <trkpt lat="46.25771" lon="6.28056">
        <ele>385.09</ele>
        <time>2020-03-08T11:22:48Z</time>
      </trkpt>
      <trkpt lat="46.2572" lon="6.28201">
        <ele>387.99</ele>
        <time>2020-03-08T11:30:12Z</time>
      </trkpt>
      <trkpt lat="46.25779" lon="6.28415">
        <ele>387.99</ele>
        <time>2020-03-08T11:31:16Z</time>
      </trkpt>
      <trkpt lat="46.2585" lon="6.28551">
        <ele>470.1</ele>
        <time>2020-03-08T11:31:55Z</time>
      </trkpt>
      <trkpt lat="46.25857" lon="6.28618">
        <ele>387.99</ele>
        <time>2020-03-08T11:32:11Z</time>
      </trkpt>
      <trkpt lat="46.25904" lon="6.28667">
        <ele>387.99</ele>
        <time>2020-03-08T11:32:34Z</time>
      </trkpt>
      <trkpt lat="46.25981" lon="6.28756">
        <ele>468.5</ele>
      </trkpt>
      <trkpt lat="46.25986" lon="6.28791">
        <ele>387.99</ele>
        <time>2020-03-08T11:33:13Z</time>
      </trkpt>
      <trkpt lat="46.26" lon="6.28855">
        <ele>468</ele>
      </trkpt>
      <trkpt lat="46.25997" lon="6.28877">
        <ele>387.99</ele>
        <time>2020-03-08T11:33:57Z</time>
      </trkpt>
      <trkpt lat="46.25973" lon="6.28882">
        <ele>468.2</ele>
      </trkpt>
      <trkpt lat="46.25953" lon="6.28927">
        <ele>467.2</ele>
      </trkpt>
      <trkpt lat="46.2597" lon="6.28958">
        <ele>467</ele>
      </trkpt>
      <trkpt lat="46.25961" lon="6.28973">
        <ele>467</ele>
      </trkpt>
      <trkpt lat="46.25951" lon="6.28971">
        <ele>467</ele>
      </trkpt>
      <trkpt lat="46.2587" lon="6.29098">
        <ele>469.9</ele>
      </trkpt>
      <trkpt lat="46.2585" lon="6.29201">
        <ele>469.4</ele>
      </trkpt>
      <trkpt lat="46.25749" lon="6.29325">
        <ele>470</ele>
        <time>2020-03-08T11:55:44Z</time>
      </trkpt>
      <trkpt lat="46.25778" lon="6.29418">
        <ele>391.33</ele>
        <time>2020-03-08T11:56:14Z</time>
      </trkpt>
      <trkpt lat="46.25713" lon="6.29467">
        <ele>394.94</ele>
        <time>2020-03-08T11:57:00Z</time>
      </trkpt>
      <trkpt lat="46.2561" lon="6.29504">
        <ele>397.17</ele>
        <time>2020-03-08T11:58:00Z</time>
      </trkpt>
      <trkpt lat="46.25578" lon="6.29587">
        <ele>398.61</ele>
        <time>2020-03-08T11:58:45Z</time>
      </trkpt>
      <trkpt lat="46.25603" lon="6.29649">
        <ele>398.75</ele>
        <time>2020-03-08T12:01:36Z</time>
      </trkpt>
      <trkpt lat="46.25771" lon="6.29767">
        <ele>402.77</ele>
        <time>2020-03-08T12:02:29Z</time>
      </trkpt>
      <trkpt lat="46.25803" lon="6.29802">
        <ele>401.75</ele>
        <time>2020-03-08T12:02:45Z</time>
      </trkpt>
      <trkpt lat="46.25662" lon="6.30295">
        <ele>413.72</ele>
        <time>2020-03-08T12:08:11Z</time>
      </trkpt>
      <trkpt lat="46.25621" lon="6.30415">
        <ele>416.27</ele>
        <time>2020-03-08T12:08:41Z</time>
      </trkpt>
      <trkpt lat="46.2559" lon="6.30465">
        <ele>415.41</ele>
        <time>2020-03-08T12:09:00Z</time>
      </trkpt>
      <trkpt lat="46.25575" lon="6.30501">
        <ele>415.44</ele>
        <time>2020-03-08T12:16:37Z</time>
      </trkpt>
      <trkpt lat="46.25558" lon="6.30577">
        <ele>494.4</ele>
      </trkpt>
      <trkpt lat="46.2556" lon="6.30655">
        <ele>422.34</ele>
        <time>2020-03-08T12:17:48Z</time>
      </trkpt>
      <trkpt lat="46.25521" lon="6.30864">
        <ele>430.71</ele>
        <time>2020-03-08T12:18:47Z</time>
      </trkpt>
      <trkpt lat="46.25352" lon="6.31269">
        <ele>445.42</ele>
        <time>2020-03-08T12:20:52Z</time>
      </trkpt>
      <trkpt lat="46.25384" lon="6.31316">
        <ele>447.07</ele>
        <time>2020-03-08T12:21:06Z</time>
      </trkpt>
      <trkpt lat="46.25543" lon="6.31467">
        <ele>448</ele>
        <time>2020-03-08T12:22:00Z</time>
      </trkpt>
      <trkpt lat="46.25566" lon="6.31596">
        <ele>448.63</ele>
        <time>2020-03-08T12:22:23Z</time>
      </trkpt>
      <trkpt lat="46.25665" lon="6.31746">
        <ele>448.63</ele>
        <time>2020-03-08T12:23:02Z</time>
      </trkpt>
      <trkpt lat="46.25711" lon="6.31783">
        <ele>448.63</ele>
        <time>2020-03-08T12:23:18Z</time>
      </trkpt>
      <trkpt lat="46.25806" lon="6.31948">
        <ele>457.25</ele>
        <time>2020-03-08T12:24:01Z</time>
      </trkpt>
      <trkpt lat="46.25827" lon="6.32008">
        <ele>458.3</ele>
        <time>2020-03-08T12:24:14Z</time>
      </trkpt>
      <trkpt lat="46.25835" lon="6.32072">
        <ele>532.6</ele>
        <time>2020-03-08T12:24:28Z</time>
      </trkpt>
      <trkpt lat="46.2587" lon="6.32182">
        <ele>535.2</ele>
      </trkpt>
      <trkpt lat="46.25871" lon="6.32221">
        <ele>535.6</ele>
        <time>2020-03-08T12:24:51Z</time>
      </trkpt>
      <trkpt lat="46.25897" lon="6.3222">
        <ele>462.35</ele>
        <time>2020-03-08T12:25:15Z</time>
      </trkpt>
      <trkpt lat="46.25929" lon="6.32265">
        <ele>467.9</ele>
        <time>2020-03-08T12:25:38Z</time>
      </trkpt>
      <trkpt lat="46.25969" lon="6.32302">
        <ele>470.16</ele>
        <time>2020-03-08T12:26:00Z</time>
      </trkpt>
      <trkpt lat="46.25996" lon="6.32353">
        <ele>471.44</ele>
        <time>2020-03-08T12:26:24Z</time>
      </trkpt>
      <trkpt lat="46.2601" lon="6.32415">
        <ele>473.53</ele>
        <time>2020-03-08T12:27:11Z</time>
      </trkpt>
      <trkpt lat="46.26054" lon="6.32532">
        <ele>479.5</ele>
        <time>2020-03-08T12:28:23Z</time>
      </trkpt>
      <trkpt lat="46.26089" lon="6.32657">
        <ele>483.2</ele>
        <time>2020-03-08T12:29:07Z</time>
      </trkpt>
      <trkpt lat="46.26086" lon="6.32723">
        <ele>484.7</ele>
        <time>2020-03-08T12:29:28Z</time>
      </trkpt>
      <trkpt lat="46.26129" lon="6.32739">
        <ele>486.06</ele>
        <time>2020-03-08T12:29:48Z</time>
      </trkpt>
      <trkpt lat="46.26224" lon="6.32747">
        <ele>488.27</ele>
        <time>2020-03-08T12:30:26Z</time>
      </trkpt>
      <trkpt lat="46.26268" lon="6.32726">
        <ele>488.42</ele>
        <time>2020-03-08T12:30:46Z</time>
      </trkpt>
      <trkpt lat="46.26348" lon="6.32662">
        <ele>488.27</ele>
        <time>2020-03-08T12:31:24Z</time>
      </trkpt>
      <trkpt lat="46.26392" lon="6.32642">
        <ele>488.3</ele>
        <time>2020-03-08T12:31:44Z</time>
      </trkpt>
      <trkpt lat="46.26486" lon="6.32631">
        <ele>488.3</ele>
        <time>2020-03-08T12:32:24Z</time>
      </trkpt>
      <trkpt lat="46.26577" lon="6.32598">
        <ele>488.3</ele>
        <time>2020-03-08T12:33:04Z</time>
      </trkpt>
      <trkpt lat="46.26619" lon="6.3262">
        <ele>488.3</ele>
        <time>2020-03-08T12:33:24Z</time>
      </trkpt>
      <trkpt lat="46.26666" lon="6.32702">
        <ele>561.9</ele>
        <time>2020-03-08T12:33:45Z</time>
      </trkpt>
      <trkpt lat="46.26686" lon="6.32612">
        <ele>561.4</ele>
        <time>2020-03-08T12:34:49Z</time>
      </trkpt>
      <trkpt lat="46.26699" lon="6.32617">
        <ele>490.86</ele>
        <time>2020-03-08T12:35:02Z</time>
      </trkpt>
      <trkpt lat="46.26933" lon="6.32676">
        <ele>497.13</ele>
        <time>2020-03-08T12:36:30Z</time>
      </trkpt>
      <trkpt lat="46.27035" lon="6.32619">
        <ele>497.82</ele>
        <time>2020-03-08T12:37:27Z</time>
      </trkpt>
      <trkpt lat="46.27102" lon="6.32603">
        <ele>497.87</ele>
        <time>2020-03-08T12:38:03Z</time>
      </trkpt>
      <trkpt lat="46.27184" lon="6.32612">
        <ele>497.87</ele>
        <time>2020-03-08T12:40:03Z</time>
      </trkpt>
      <trkpt lat="46.27252" lon="6.32592">
        <ele>497.87</ele>
        <time>2020-03-08T12:40:53Z</time>
      </trkpt>
      <trkpt lat="46.27313" lon="6.32561">
        <ele>497.87</ele>
        <time>2020-03-08T12:41:39Z</time>
      </trkpt>
      <trkpt lat="46.27423" lon="6.32554">
        <ele>497.87</ele>
        <time>2020-03-08T12:42:30Z</time>
      </trkpt>
      <trkpt lat="46.27564" lon="6.32528">
        <ele>504.45</ele>
        <time>2020-03-08T12:43:25Z</time>
      </trkpt>
      <trkpt lat="46.27606" lon="6.32557">
        <ele>505.35</ele>
        <time>2020-03-08T12:43:43Z</time>
      </trkpt>
      <trkpt lat="46.27882" lon="6.32616">
        <ele>510.41</ele>
        <time>2020-03-08T12:45:58Z</time>
      </trkpt>
      <trkpt lat="46.27927" lon="6.32607">
        <ele>510.77</ele>
        <time>2020-03-08T12:46:12Z</time>
      </trkpt>
      <trkpt lat="46.27951" lon="6.32549">
        <ele>510.36</ele>
        <time>2020-03-08T12:46:28Z</time>
      </trkpt>
      <trkpt lat="46.2799" lon="6.32512">
        <ele>510.11</ele>
        <time>2020-03-08T12:47:57Z</time>
      </trkpt>
      <trkpt lat="46.28085" lon="6.32506">
        <ele>510.11</ele>
        <time>2020-03-08T12:48:30Z</time>
      </trkpt>
      <trkpt lat="46.28133" lon="6.32496">
        <ele>582</ele>
        <time>2020-03-08T12:48:51Z</time>
      </trkpt>
      <trkpt lat="46.28174" lon="6.32508">
        <ele>510.11</ele>
        <time>2020-03-08T12:49:08Z</time>
      </trkpt>
      <trkpt lat="46.28253" lon="6.32502">
        <ele>582.1</ele>
      </trkpt>
      <trkpt lat="46.28313" lon="6.32512">
        <ele>513.34</ele>
        <time>2020-03-08T12:49:53Z</time>
      </trkpt>
      <trkpt lat="46.28402" lon="6.32495">
        <ele>513.68</ele>
        <time>2020-03-08T12:50:23Z</time>
      </trkpt>
      <trkpt lat="46.28542" lon="6.32515">
        <ele>518.8</ele>
        <time>2020-03-08T12:51:06Z</time>
      </trkpt>
      <trkpt lat="46.28589" lon="6.32511">
        <ele>520.33</ele>
        <time>2020-03-08T12:51:20Z</time>
      </trkpt>
      <trkpt lat="46.28644" lon="6.32521">
        <ele>591.8</ele>
        <time>2020-03-08T12:51:35Z</time>
      </trkpt>
      <trkpt lat="46.28633" lon="6.32578">
        <ele>523.24</ele>
        <time>2020-03-08T12:53:02Z</time>
      </trkpt>
      <trkpt lat="46.28588" lon="6.32744">
        <ele>596.3</ele>
        <time>2020-03-08T12:53:45Z</time>
      </trkpt>
      <trkpt lat="46.28581" lon="6.32806">
        <ele>596.8</ele>
      </trkpt>
      <trkpt lat="46.28594" lon="6.32916">
        <ele>596.4</ele>
      </trkpt>
      <trkpt lat="46.28601" lon="6.33047">
        <ele>527.62</ele>
        <time>2020-03-08T12:56:05Z</time>
      </trkpt>
      <trkpt lat="46.28595" lon="6.33114">
        <ele>527.62</ele>
        <time>2020-03-08T12:56:25Z</time>
      </trkpt>
      <trkpt lat="46.28519" lon="6.33321">
        <ele>596.3</ele>
        <time>2020-03-08T12:58:57Z</time>
      </trkpt>
      <trkpt lat="46.28517" lon="6.33491">
        <ele>592.2</ele>
      </trkpt>
      <trkpt lat="46.28585" lon="6.33622">
        <ele>591</ele>
      </trkpt>
      <trkpt lat="46.28634" lon="6.33674">
        <ele>591.6</ele>
      </trkpt>
      <trkpt lat="46.28944" lon="6.33753">
        <ele>601</ele>
      </trkpt>
      <trkpt lat="46.28996" lon="6.33757">
        <ele>536.87</ele>
        <time>2020-03-08T13:17:45Z</time>
      </trkpt>
      <trkpt lat="46.29026" lon="6.33703">
        <ele>538.25</ele>
        <time>2020-03-08T13:18:01Z</time>
      </trkpt>
      <trkpt lat="46.29069" lon="6.33657">
        <ele>539.71</ele>
        <time>2020-03-08T13:18:19Z</time>
      </trkpt>
      <trkpt lat="46.29214" lon="6.33663">
        <ele>545.51</ele>
        <time>2020-03-08T13:19:09Z</time>
      </trkpt>
      <trkpt lat="46.2923" lon="6.33683">
        <ele>611.4</ele>
      </trkpt>
      <trkpt lat="46.29237" lon="6.33728">
        <ele>612.1</ele>
        <time>2020-03-08T13:19:26Z</time>
      </trkpt>
      <trkpt lat="46.29267" lon="6.33739">
        <ele>546.2</ele>
        <time>2020-03-08T13:21:09Z</time>
      </trkpt>
      <trkpt lat="46.2936" lon="6.33749">
        <ele>555.83</ele>
        <time>2020-03-08T13:21:50Z</time>
      </trkpt>
      <trkpt lat="46.29421" lon="6.33736">
        <ele>627.5</ele>
        <time>2020-03-08T13:22:12Z</time>
      </trkpt>
      <trkpt lat="46.29471" lon="6.33763">
        <ele>634.4</ele>
      </trkpt>
      <trkpt lat="46.29494" lon="6.33755">
        <ele>572.62</ele>
        <time>2020-03-08T13:23:04Z</time>
      </trkpt>
      <trkpt lat="46.29538" lon="6.33739">
        <ele>576.16</ele>
        <time>2020-03-08T13:23:30Z</time>
      </trkpt>
      <trkpt lat="46.29583" lon="6.33753">
        <ele>578.74</ele>
        <time>2020-03-08T13:24:56Z</time>
      </trkpt>
      <trkpt lat="46.29618" lon="6.33796">
        <ele>580.89</ele>
        <time>2020-03-08T13:25:19Z</time>
      </trkpt>
      <trkpt lat="46.29646" lon="6.33852">
        <ele>583.27</ele>
        <time>2020-03-08T13:25:42Z</time>
      </trkpt>
      <trkpt lat="46.29659" lon="6.33885">
        <ele>646.9</ele>
      </trkpt>
      <trkpt lat="46.2968" lon="6.33885">
        <ele>584.04</ele>
        <time>2020-03-08T13:26:01Z</time>
      </trkpt>
      <trkpt lat="46.29848" lon="6.33767">
        <ele>591.29</ele>
        <time>2020-03-08T13:27:58Z</time>
      </trkpt>
      <trkpt lat="46.29887" lon="6.3381">
        <ele>593.25</ele>
        <time>2020-03-08T13:28:34Z</time>
      </trkpt>
      <trkpt lat="46.29914" lon="6.33862">
        <ele>594.52</ele>
        <time>2020-03-08T13:28:56Z</time>
      </trkpt>
      <trkpt lat="46.29956" lon="6.3389">
        <ele>598.3</ele>
        <time>2020-03-08T13:29:17Z</time>
      </trkpt>
      <trkpt lat="46.3" lon="6.33908">
        <ele>600.6</ele>
        <time>2020-03-08T13:29:37Z</time>
      </trkpt>
      <trkpt lat="46.30033" lon="6.33884">
        <ele>601.38</ele>
        <time>2020-03-08T13:30:23Z</time>
      </trkpt>
      <trkpt lat="46.30054" lon="6.33849">
        <ele>601.49</ele>
        <time>2020-03-08T13:36:01Z</time>
      </trkpt>
      <trkpt lat="46.30065" lon="6.33832">
        <ele>664.2</ele>
      </trkpt>
      <trkpt lat="46.30077" lon="6.3383">
        <ele>667.2</ele>
        <time>2020-03-08T13:36:53Z</time>
      </trkpt>
      <trkpt lat="46.30089" lon="6.33849">
        <ele>670.2</ele>
      </trkpt>
      <trkpt lat="46.30172" lon="6.34181">
        <ele>614.08</ele>
        <time>2020-03-08T13:42:40Z</time>
      </trkpt>
      <trkpt lat="46.30178" lon="6.34221">
        <ele>680.8</ele>
      </trkpt>
      <trkpt lat="46.30201" lon="6.3421">
        <ele>614.08</ele>
        <time>2020-03-08T13:43:02Z</time>
      </trkpt>
      <trkpt lat="46.30243" lon="6.34185">
        <ele>614.08</ele>
        <time>2020-03-08T13:43:26Z</time>
      </trkpt>
      <trkpt lat="46.30279" lon="6.34207">
        <ele>624.19</ele>
        <time>2020-03-08T13:44:05Z</time>
      </trkpt>
      <trkpt lat="46.30289" lon="6.34272">
        <ele>631.49</ele>
        <time>2020-03-08T13:44:37Z</time>
      </trkpt>
      <trkpt lat="46.30361" lon="6.34383">
        <ele>644.21</ele>
        <time>2020-03-08T13:45:52Z</time>
      </trkpt>
      <trkpt lat="46.30482" lon="6.34601">
        <ele>650.31</ele>
        <time>2020-03-08T13:48:20Z</time>
      </trkpt>
      <trkpt lat="46.30537" lon="6.34716">
        <ele>652.53</ele>
        <time>2020-03-08T13:49:08Z</time>
      </trkpt>
      <trkpt lat="46.30617" lon="6.34843">
        <ele>653.26</ele>
        <time>2020-03-08T13:50:33Z</time>
      </trkpt>
      <trkpt lat="46.30563" lon="6.34911">
        <ele>713.7</ele>
        <time>2020-03-08T13:51:28Z</time>
      </trkpt>
      <trkpt lat="46.30607" lon="6.34941">
        <ele>652.29</ele>
        <time>2020-03-08T13:51:51Z</time>
      </trkpt>
      <trkpt lat="46.30652" lon="6.34997">
        <ele>652.29</ele>
        <time>2020-03-08T13:52:20Z</time>
      </trkpt>
      <trkpt lat="46.30734" lon="6.35059">
        <ele>703.9</ele>
      </trkpt>
      <trkpt lat="46.308" lon="6.35145">
        <ele>696.9</ele>
        <time>2020-03-08T13:53:53Z</time>
      </trkpt>
      <trkpt lat="46.30949" lon="6.35263">
        <ele>683</ele>
        <time>2020-03-08T13:54:41Z</time>
      </trkpt>
      <trkpt lat="46.30972" lon="6.3524">
        <ele>616.91</ele>
        <time>2020-03-08T13:55:21Z</time>
      </trkpt>
      <trkpt lat="46.30989" lon="6.35204">
        <ele>666.7</ele>
        <time>2020-03-08T13:56:07Z</time>
      </trkpt>
      <trkpt lat="46.31079" lon="6.35254">
        <ele>586.62</ele>
        <time>2020-03-08T13:57:07Z</time>
      </trkpt>
      <trkpt lat="46.31152" lon="6.35308">
        <ele>572.23</ele>
        <time>2020-03-08T13:58:00Z</time>
      </trkpt>
      <trkpt lat="46.31182" lon="6.35337">
        <ele>623.5</ele>
      </trkpt>
      <trkpt lat="46.31206" lon="6.35317">
        <ele>548.01</ele>
        <time>2020-03-08T14:03:25Z</time>
      </trkpt>
      <trkpt lat="46.31186" lon="6.35233">
        <ele>539.51</ele>
        <time>2020-03-08T14:05:23Z</time>
      </trkpt>
      <trkpt lat="46.31154" lon="6.35146">
        <ele>533.23</ele>
        <time>2020-03-08T14:06:53Z</time>
      </trkpt>
      <trkpt lat="46.31166" lon="6.35058">
        <ele>528.37</ele>
        <time>2020-03-08T14:07:58Z</time>
      </trkpt>
      <trkpt lat="46.31166" lon="6.3499">
        <ele>521.66</ele>
        <time>2020-03-08T14:08:15Z</time>
      </trkpt>
      <trkpt lat="46.31125" lon="6.34909">
        <ele>519.08</ele>
        <time>2020-03-08T14:08:52Z</time>
      </trkpt>
      <trkpt lat="46.31084" lon="6.34867">
        <ele>516.61</ele>
        <time>2020-03-08T14:09:18Z</time>
      </trkpt>
      <trkpt lat="46.31062" lon="6.34786">
        <ele>509.16</ele>
        <time>2020-03-08T14:09:45Z</time>
      </trkpt>
      <trkpt lat="46.31027" lon="6.34721">
        <ele>503.68</ele>
        <time>2020-03-08T14:11:17Z</time>
      </trkpt>
      <trkpt lat="46.31005" lon="6.34643">
        <ele>498.46</ele>
        <time>2020-03-08T14:12:04Z</time>
      </trkpt>
      <trkpt lat="46.31013" lon="6.34571">
        <ele>498.84</ele>
        <time>2020-03-08T14:14:11Z</time>
      </trkpt>
      <trkpt lat="46.30992" lon="6.34492">
        <ele>498.84</ele>
        <time>2020-03-08T14:14:24Z</time>
      </trkpt>
      <trkpt lat="46.30998" lon="6.34348">
        <ele>498.84</ele>
        <time>2020-03-08T14:14:41Z</time>
      </trkpt>
      <trkpt lat="46.30989" lon="6.34275">
        <ele>498.84</ele>
        <time>2020-03-08T14:14:50Z</time>
      </trkpt>
      <trkpt lat="46.31033" lon="6.34236">
        <ele>498.84</ele>
        <time>2020-03-08T14:14:59Z</time>
      </trkpt>
      <trkpt lat="46.31079" lon="6.34242">
        <ele>472.05</ele>
        <time>2020-03-08T14:15:10Z</time>
      </trkpt>
      <trkpt lat="46.31168" lon="6.34312">
        <ele>467.18</ele>
        <time>2020-03-08T14:15:25Z</time>
      </trkpt>
      <trkpt lat="46.3125" lon="6.34396">
        <ele>459.74</ele>
        <time>2020-03-08T14:15:38Z</time>
      </trkpt>
      <trkpt lat="46.31291" lon="6.34424">
        <ele>455.19</ele>
        <time>2020-03-08T14:15:46Z</time>
      </trkpt>
      <trkpt lat="46.31338" lon="6.34443">
        <ele>451.04</ele>
        <time>2020-03-08T14:15:55Z</time>
      </trkpt>
      <trkpt lat="46.31353" lon="6.34506">
        <ele>447.4</ele>
        <time>2020-03-08T14:16:03Z</time>
      </trkpt>
      <trkpt lat="46.31388" lon="6.34489">
        <ele>442.92</ele>
        <time>2020-03-08T14:16:13Z</time>
      </trkpt>
      <trkpt lat="46.31344" lon="6.34202">
        <ele>430.22</ele>
        <time>2020-03-08T14:16:38Z</time>
      </trkpt>
      <trkpt lat="46.3136" lon="6.34137">
        <ele>425.61</ele>
        <time>2020-03-08T14:16:46Z</time>
      </trkpt>
      <trkpt lat="46.31342" lon="6.34078">
        <ele>422.29</ele>
        <time>2020-03-08T14:16:56Z</time>
      </trkpt>
      <trkpt lat="46.31312" lon="6.34028">
        <ele>420.31</ele>
        <time>2020-03-08T14:17:03Z</time>
      </trkpt>
      <trkpt lat="46.31297" lon="6.33891">
        <ele>413.78</ele>
        <time>2020-03-08T14:17:18Z</time>
      </trkpt>
      <trkpt lat="46.31245" lon="6.33629">
        <ele>398.62</ele>
        <time>2020-03-08T14:17:46Z</time>
      </trkpt>
      <trkpt lat="46.31278" lon="6.33599">
        <ele>392.67</ele>
        <time>2020-03-08T14:17:56Z</time>
      </trkpt>
      <trkpt lat="46.31365" lon="6.33668">
        <ele>385.6</ele>
        <time>2020-03-08T14:18:12Z</time>
      </trkpt>
      <trkpt lat="46.31402" lon="6.33622">
        <ele>380.79</ele>
        <time>2020-03-08T14:18:22Z</time>
      </trkpt>
      <trkpt lat="46.3144" lon="6.3359">
        <ele>375.65</ele>
        <time>2020-03-08T14:18:34Z</time>
      </trkpt>
      <trkpt lat="46.31479" lon="6.33583">
        <ele>374.54</ele>
        <time>2020-03-08T14:18:51Z</time>
      </trkpt>
      <trkpt lat="46.31448" lon="6.33595">
        <ele>374.86</ele>
        <time>2020-03-08T14:19:49Z</time>
      </trkpt>
      <trkpt lat="46.31403" lon="6.33565">
        <ele>374.35</ele>
        <time>2020-03-08T14:20:06Z</time>
      </trkpt>
      <trkpt lat="46.31358" lon="6.33548">
        <ele>373.34</ele>
        <time>2020-03-08T14:20:20Z</time>
      </trkpt>
      <trkpt lat="46.31329" lon="6.33501">
        <ele>373.34</ele>
        <time>2020-03-08T14:20:34Z</time>
      </trkpt>
      <trkpt lat="46.31308" lon="6.33365">
        <ele>373.34</ele>
        <time>2020-03-08T14:20:57Z</time>
      </trkpt>
      <trkpt lat="46.312" lon="6.33145">
        <ele>373.34</ele>
        <time>2020-03-08T14:21:48Z</time>
      </trkpt>
      <trkpt lat="46.31167" lon="6.33019">
        <ele>373.34</ele>
        <time>2020-03-08T14:22:13Z</time>
      </trkpt>
      <trkpt lat="46.31073" lon="6.32789">
        <ele>384.36</ele>
        <time>2020-03-08T14:23:15Z</time>
      </trkpt>
      <trkpt lat="46.31016" lon="6.32677">
        <ele>383.94</ele>
        <time>2020-03-08T14:23:39Z</time>
      </trkpt>
      <trkpt lat="46.30978" lon="6.32546">
        <ele>380.79</ele>
        <time>2020-03-08T14:23:58Z</time>
      </trkpt>
      <trkpt lat="46.30868" lon="6.32328">
        <ele>380.35</ele>
        <time>2020-03-08T14:24:40Z</time>
      </trkpt>
      <trkpt lat="46.30778" lon="6.32173">
        <ele>379.64</ele>
        <time>2020-03-08T14:25:13Z</time>
      </trkpt>
      <trkpt lat="46.30736" lon="6.32134">
        <ele>379.56</ele>
        <time>2020-03-08T14:25:24Z</time>
      </trkpt>
      <trkpt lat="46.30694" lon="6.32112">
        <ele>379.62</ele>
        <time>2020-03-08T14:25:37Z</time>
      </trkpt>
      <trkpt lat="46.30621" lon="6.32032">
        <ele>378.95</ele>
        <time>2020-03-08T14:25:57Z</time>
      </trkpt>
      <trkpt lat="46.30528" lon="6.31883">
        <ele>379.44</ele>
        <time>2020-03-08T14:26:36Z</time>
      </trkpt>
      <trkpt lat="46.30496" lon="6.31851">
        <ele>379.44</ele>
        <time>2020-03-08T14:26:51Z</time>
      </trkpt>
      <trkpt lat="46.30426" lon="6.31936">
        <ele>386.61</ele>
        <time>2020-03-08T14:27:29Z</time>
      </trkpt>
      <trkpt lat="46.30385" lon="6.31957">
        <ele>391.58</ele>
        <time>2020-03-08T14:27:52Z</time>
      </trkpt>
      <trkpt lat="46.30342" lon="6.31933">
        <ele>396.14</ele>
        <time>2020-03-08T14:28:18Z</time>
      </trkpt>
      <trkpt lat="46.30302" lon="6.31888">
        <ele>400.02</ele>
        <time>2020-03-08T14:28:44Z</time>
      </trkpt>
      <trkpt lat="46.30269" lon="6.3183">
        <ele>402.31</ele>
        <time>2020-03-08T14:29:07Z</time>
      </trkpt>
      <trkpt lat="46.30232" lon="6.31795">
        <ele>404.9</ele>
        <time>2020-03-08T14:29:54Z</time>
      </trkpt>
      <trkpt lat="46.30227" lon="6.31779">
        <ele>406.46</ele>
        <time>2020-03-08T14:56:29Z</time>
      </trkpt>
      <trkpt lat="46.30117" lon="6.31654">
        <ele>406.46</ele>
        <time>2020-03-08T14:57:16Z</time>
      </trkpt>
      <trkpt lat="46.30108" lon="6.31589">
        <ele>406.46</ele>
        <time>2020-03-08T14:57:27Z</time>
      </trkpt>
      <trkpt lat="46.3009" lon="6.31528">
        <ele>406.46</ele>
        <time>2020-03-08T14:57:35Z</time>
      </trkpt>
      <trkpt lat="46.30036" lon="6.31443">
        <ele>390.78</ele>
        <time>2020-03-08T14:58:10Z</time>
      </trkpt>
      <trkpt lat="46.29952" lon="6.31385">
        <ele>394.88</ele>
        <time>2020-03-08T14:58:49Z</time>
      </trkpt>
      <trkpt lat="46.2992" lon="6.31334">
        <ele>391.74</ele>
        <time>2020-03-08T14:59:04Z</time>
      </trkpt>
      <trkpt lat="46.2989" lon="6.31378">
        <ele>392.61</ele>
        <time>2020-03-08T14:59:29Z</time>
      </trkpt>
      <trkpt lat="46.2987" lon="6.31435">
        <ele>397.49</ele>
        <time>2020-03-08T14:59:55Z</time>
      </trkpt>
      <trkpt lat="46.298" lon="6.31514">
        <ele>408.71</ele>
        <time>2020-03-08T15:00:58Z</time>
      </trkpt>
      <trkpt lat="46.29683" lon="6.31414">
        <ele>413.84</ele>
        <time>2020-03-08T15:02:07Z</time>
      </trkpt>
      <trkpt lat="46.29632" lon="6.31522">
        <ele>424.12</ele>
        <time>2020-03-08T15:03:00Z</time>
      </trkpt>
      <trkpt lat="46.29606" lon="6.31498">
        <ele>428.6</ele>
        <time>2020-03-08T15:03:20Z</time>
      </trkpt>
      <trkpt lat="46.29578" lon="6.31356">
        <ele>420.9</ele>
        <time>2020-03-08T15:03:34Z</time>
      </trkpt>
      <trkpt lat="46.29532" lon="6.31242">
        <ele>411.49</ele>
        <time>2020-03-08T15:03:46Z</time>
      </trkpt>
      <trkpt lat="46.29521" lon="6.31184">
        <ele>460.8</ele>
        <time>2020-03-08T15:06:26Z</time>
      </trkpt>
      <trkpt lat="46.29328" lon="6.31086">
        <ele>407.85</ele>
        <time>2020-03-08T15:07:44Z</time>
      </trkpt>
      <trkpt lat="46.2911" lon="6.31024">
        <ele>410.46</ele>
        <time>2020-03-08T15:09:25Z</time>
      </trkpt>
      <trkpt lat="46.29175" lon="6.30912">
        <ele>406.5</ele>
        <time>2020-03-08T15:10:18Z</time>
      </trkpt>
      <trkpt lat="46.2922" lon="6.30793">
        <ele>404.73</ele>
        <time>2020-03-08T15:10:39Z</time>
      </trkpt>
      <trkpt lat="46.29228" lon="6.30733">
        <ele>403.11</ele>
        <time>2020-03-08T15:10:48Z</time>
      </trkpt>
      <trkpt lat="46.2919" lon="6.3069">
        <ele>401.91</ele>
        <time>2020-03-08T15:11:01Z</time>
      </trkpt>
      <trkpt lat="46.2913" lon="6.30583">
        <ele>400.1</ele>
        <time>2020-03-08T15:11:21Z</time>
      </trkpt>
      <trkpt lat="46.2909" lon="6.30581">
        <ele>398.28</ele>
        <time>2020-03-08T15:11:31Z</time>
      </trkpt>
      <trkpt lat="46.29049" lon="6.30597">
        <ele>398.3</ele>
        <time>2020-03-08T15:11:44Z</time>
      </trkpt>
      <trkpt lat="46.28941" lon="6.30464">
        <ele>401.37</ele>
        <time>2020-03-08T15:12:23Z</time>
      </trkpt>
      <trkpt lat="46.28913" lon="6.30411">
        <ele>401.37</ele>
        <time>2020-03-08T15:12:38Z</time>
      </trkpt>
      <trkpt lat="46.28869" lon="6.30209">
        <ele>401.37</ele>
        <time>2020-03-08T15:13:18Z</time>
      </trkpt>
      <trkpt lat="46.28869" lon="6.30012">
        <ele>401.37</ele>
        <time>2020-03-08T15:13:39Z</time>
      </trkpt>
      <trkpt lat="46.28902" lon="6.29891">
        <ele>442.4</ele>
        <time>2020-03-08T15:14:01Z</time>
      </trkpt>
      <trkpt lat="46.28908" lon="6.29855">
        <ele>442.7</ele>
      </trkpt>
      <trkpt lat="46.28895" lon="6.29835">
        <ele>386.61</ele>
        <time>2020-03-08T15:14:14Z</time>
      </trkpt>
      <trkpt lat="46.28611" lon="6.29472">
        <ele>386.44</ele>
        <time>2020-03-08T15:15:58Z</time>
      </trkpt>
      <trkpt lat="46.28566" lon="6.29431">
        <ele>386.44</ele>
        <time>2020-03-08T15:16:11Z</time>
      </trkpt>
      <trkpt lat="46.28526" lon="6.29381">
        <ele>386.44</ele>
        <time>2020-03-08T15:16:25Z</time>
      </trkpt>
      <trkpt lat="46.2852" lon="6.29311">
        <ele>386.44</ele>
        <time>2020-03-08T15:16:41Z</time>
      </trkpt>
      <trkpt lat="46.28494" lon="6.29249">
        <ele>386.44</ele>
        <time>2020-03-08T15:16:56Z</time>
      </trkpt>
      <trkpt lat="46.28451" lon="6.29209">
        <ele>386.44</ele>
        <time>2020-03-08T15:17:10Z</time>
      </trkpt>
      <trkpt lat="46.28397" lon="6.29183">
        <ele>386.44</ele>
        <time>2020-03-08T15:17:30Z</time>
      </trkpt>
      <trkpt lat="46.283" lon="6.29086">
        <ele>386.44</ele>
        <time>2020-03-08T15:18:21Z</time>
      </trkpt>
      <trkpt lat="46.282" lon="6.29005">
        <ele>386.44</ele>
        <time>2020-03-08T15:19:06Z</time>
      </trkpt>
      <trkpt lat="46.28046" lon="6.28834">
        <ele>386.44</ele>
        <time>2020-03-08T15:22:23Z</time>
      </trkpt>
      <trkpt lat="46.28026" lon="6.28756">
        <ele>386.44</ele>
        <time>2020-03-08T15:23:44Z</time>
      </trkpt>
      <trkpt lat="46.28016" lon="6.28676">
        <ele>386.44</ele>
        <time>2020-03-08T15:24:43Z</time>
      </trkpt>
      <trkpt lat="46.28048" lon="6.28612">
        <ele>386.44</ele>
        <time>2020-03-08T15:25:42Z</time>
      </trkpt>
      <trkpt lat="46.27979" lon="6.28483">
        <ele>386.44</ele>
        <time>2020-03-08T15:27:30Z</time>
      </trkpt>
      <trkpt lat="46.27893" lon="6.28243">
        <ele>386.44</ele>
        <time>2020-03-08T15:30:19Z</time>
      </trkpt>
      <trkpt lat="46.27857" lon="6.28079">
        <ele>386.44</ele>
        <time>2020-03-08T15:31:16Z</time>
      </trkpt>
      <trkpt lat="46.27773" lon="6.2794">
        <ele>386.44</ele>
        <time>2020-03-08T15:32:11Z</time>
      </trkpt>
      <trkpt lat="46.27741" lon="6.27873">
        <ele>386.44</ele>
        <time>2020-03-08T15:32:38Z</time>
      </trkpt>
      <trkpt lat="46.27691" lon="6.27713">
        <ele>386.44</ele>
        <time>2020-03-08T15:34:54Z</time>
      </trkpt>
      <trkpt lat="46.27648" lon="6.27426">
        <ele>386.44</ele>
        <time>2020-03-08T15:36:14Z</time>
      </trkpt>
      <trkpt lat="46.27657" lon="6.2735">
        <ele>383.71</ele>
        <time>2020-03-08T15:36:35Z</time>
      </trkpt>
      <trkpt lat="46.27746" lon="6.27093">
        <ele>380.87</ele>
        <time>2020-03-08T15:37:33Z</time>
      </trkpt>
      <trkpt lat="46.27756" lon="6.26949">
        <ele>377.52</ele>
        <time>2020-03-08T15:40:31Z</time>
      </trkpt>
      <trkpt lat="46.27714" lon="6.26829">
        <ele>377.52</ele>
        <time>2020-03-08T15:41:08Z</time>
      </trkpt>
      <trkpt lat="46.27663" lon="6.26713">
        <ele>377.52</ele>
        <time>2020-03-08T15:41:33Z</time>
      </trkpt>
      <trkpt lat="46.27505" lon="6.26563">
        <ele>377.52</ele>
        <time>2020-03-08T15:42:25Z</time>
      </trkpt>
      <trkpt lat="46.2743" lon="6.26479">
        <ele>377.52</ele>
        <time>2020-03-08T15:42:48Z</time>
      </trkpt>
      <trkpt lat="46.27363" lon="6.26298">
        <ele>377.52</ele>
        <time>2020-03-08T15:43:23Z</time>
      </trkpt>
      <trkpt lat="46.27353" lon="6.26241">
        <ele>377.52</ele>
        <time>2020-03-08T15:43:34Z</time>
      </trkpt>
      <trkpt lat="46.27117" lon="6.26097">
        <ele>432</ele>
      </trkpt>
      <trkpt lat="46.26975" lon="6.2599">
        <ele>432.6</ele>
      </trkpt>
      <trkpt lat="46.26911" lon="6.25904">
        <ele>433</ele>
        <time>2020-03-08T15:45:10Z</time>
      </trkpt>
    </trkseg>
  </trk>
</gpx>